Time;durP1;ratioP1;P1;durP2;ratioP2;P2;SDS_P1;SDS_P2;PMS_P1;PMS_P2;Temp;Humidity;BMP_temperature;BMP_pressure;BME280_temperature;BME280_humidity;BME280_pressure;Samples;Min_cycle;Max_cycle;Signal;HPM_P1;HPM_P2
2021/05/15 00:00:34;;;;;;;7.00;2.75;;;19.40;82.00;;;;;;5019981;28;20053;-69
2021/05/15 00:03:00;;;;;;;5.25;3.15;;;19.40;82.70;;;;;;5021461;28;20026;-67
2021/05/15 00:05:27;;;;;;;6.35;2.47;;;19.40;82.10;;;;;;5025000;28;20101;-67
2021/05/15 00:07:54;;;;;;;6.25;2.47;;;19.40;82.20;;;;;;5022244;28;20108;-71
2021/05/15 00:10:22;;;;;;;5.65;2.33;;;19.40;82.30;;;;;;5025812;28;20029;-67
2021/05/15 00:12:48;;;;;;;7.72;3.25;;;19.40;82.50;;;;;;5022996;28;20037;-67
2021/05/15 00:15:16;;;;;;;5.97;2.05;;;19.40;82.60;;;;;;5024844;28;20359;-68
2021/05/15 00:17:44;;;;;;;3.13;1.77;;;19.40;82.70;;;;;;5020755;28;20028;-69
2021/05/15 00:20:15;;;;;;;3.15;1.77;;;19.40;82.80;;;;;;5021948;28;20074;-68
2021/05/15 00:22:43;;;;;;;7.65;2.60;;;19.40;82.90;;;;;;5022649;28;20025;-68
2021/05/15 00:25:13;;;;;;;5.88;1.90;;;19.40;83.00;;;;;;5022636;28;20018;-67
2021/05/15 00:27:40;;;;;;;5.55;1.75;;;19.40;83.10;;;;;;5026468;28;20034;-67
2021/05/15 00:30:09;;;;;;;5.20;2.20;;;19.40;83.20;;;;;;5021281;28;20020;-68
2021/05/15 00:32:35;;;;;;;6.50;1.85;;;19.40;83.30;;;;;;5023276;28;20133;-68
2021/05/15 00:35:03;;;;;;;8.15;1.92;;;19.40;83.40;;;;;;5023793;28;20025;-68
2021/05/15 00:37:29;;;;;;;3.72;1.60;;;19.40;83.30;;;;;;5024230;28;20017;-67
2021/05/15 00:39:56;;;;;;;4.47;1.70;;;19.40;83.30;;;;;;5022929;28;20423;-69
2021/05/15 00:42:23;;;;;;;2.55;1.75;;;19.40;83.30;;;;;;5039044;28;20083;-68
2021/05/15 00:44:49;;;;;;;8.65;2.60;;;19.40;83.30;;;;;;5023087;28;20072;-67
2021/05/15 00:47:20;;;;;;;6.68;2.15;;;19.40;83.40;;;;;;5018906;28;20032;-68
2021/05/15 00:49:48;;;;;;;5.88;2.22;;;19.40;83.40;;;;;;5019537;28;20390;-67
2021/05/15 00:52:14;;;;;;;4.32;1.65;;;19.40;83.50;;;;;;5022568;28;20499;-68
2021/05/15 00:54:43;;;;;;;4.55;2.20;;;19.40;83.60;;;;;;5025102;28;20042;-69
2021/05/15 00:57:11;;;;;;;8.68;2.63;;;19.40;83.60;;;;;;5021969;28;20436;-67
2021/05/15 00:59:39;;;;;;;3.50;1.98;;;19.40;83.60;;;;;;5024757;28;20068;-67
2021/05/15 01:02:08;;;;;;;5.55;1.60;;;19.40;83.60;;;;;;5022649;28;20037;-68
2021/05/15 01:04:35;;;;;;;10.07;2.63;;;19.40;83.60;;;;;;5020033;28;20029;-67
2021/05/15 01:07:03;;;;;;;5.15;2.25;;;19.30;83.40;;;;;;5024940;28;20075;-69
2021/05/15 01:09:30;;;;;;;3.60;1.42;;;19.40;83.50;;;;;;5021599;28;20381;-67
2021/05/15 01:11:56;;;;;;;8.23;1.80;;;19.30;84.00;;;;;;5020858;28;20045;-68
2021/05/15 01:14:23;;;;;;;9.07;2.92;;;19.40;83.50;;;;;;5022268;28;20427;-67
2021/05/15 01:16:50;;;;;;;6.70;1.80;;;19.30;83.40;;;;;;5022838;28;20049;-68
2021/05/15 01:19:17;;;;;;;4.38;2.10;;;19.40;83.60;;;;;;5023596;28;20021;-68
2021/05/15 01:21:43;;;;;;;4.65;1.38;;;19.30;83.60;;;;;;5021606;28;20026;-71
2021/05/15 01:24:10;;;;;;;7.32;1.98;;;19.30;83.70;;;;;;5025454;28;20063;-70
2021/05/15 01:26:37;;;;;;;5.70;1.60;;;19.30;83.80;;;;;;5023287;28;20088;-68
2021/05/15 01:29:07;;;;;;;6.22;1.67;;;19.30;83.90;;;;;;5029248;28;20040;-68
2021/05/15 01:31:36;;;;;;;3.33;1.33;;;19.30;83.80;;;;;;5025010;28;20025;-68
2021/05/15 01:34:06;;;;;;;6.70;2.33;;;19.30;83.70;;;;;;5026284;28;20029;-68
2021/05/15 01:36:40;;;;;;;1.88;1.08;;;19.30;83.60;;;;;;5022856;28;20101;-67
2021/05/15 01:39:12;;;;;;;5.60;1.50;;;19.30;83.70;;;;;;5024811;28;20029;-68
2021/05/15 01:41:38;;;;;;;4.40;1.73;;;19.30;83.70;;;;;;5026462;28;20030;-67
2021/05/15 01:44:06;;;;;;;6.28;1.65;;;19.30;83.60;;;;;;5029579;28;20017;-67
2021/05/15 01:46:33;;;;;;;2.83;1.50;;;19.30;83.60;;;;;;5026706;28;20033;-70
2021/05/15 01:48:59;;;;;;;5.20;1.98;;;19.30;83.60;;;;;;5023999;28;20041;-68
2021/05/15 01:51:26;;;;;;;4.03;1.63;;;19.30;83.60;;;;;;5023411;28;20026;-78
2021/05/15 01:53:53;;;;;;;3.28;1.80;;;19.30;83.60;;;;;;5023897;28;20021;-78
2021/05/15 01:56:22;;;;;;;2.95;1.63;;;19.30;83.70;;;;;;5025957;28;20057;-68
2021/05/15 01:58:49;;;;;;;6.15;1.55;;;19.30;83.80;;;;;;5030391;28;20542;-68
2021/05/15 02:01:17;;;;;;;5.13;2.00;;;19.30;83.80;;;;;;5023369;28;20048;-67
2021/05/15 02:03:45;;;;;;;3.92;1.65;;;19.30;83.90;;;;;;5022484;28;20151;-68
2021/05/15 02:06:12;;;;;;;5.90;1.50;;;19.30;83.90;;;;;;5023848;28;20105;-76
2021/05/15 02:09:18;;;;;;;3.65;1.38;;;19.30;83.90;;;;;;5018152;28;20021;-68
2021/05/15 02:12:24;;;;;;;5.50;1.90;;;19.30;84.00;;;;;;5027252;28;20079;-69
2021/05/15 02:15:31;;;;;;;3.42;1.75;;;19.30;83.90;;;;;;5022321;28;20033;-68
2021/05/15 02:18:37;;;;;;;5.63;2.05;;;19.30;83.90;;;;;;5021880;28;20017;-68
2021/05/15 02:21:43;;;;;;;2.53;1.35;;;19.30;83.90;;;;;;5025794;28;20440;-68
2021/05/15 02:24:29;;;;;;;;;;;19.30;83.90;;;;;;5024965;28;20029;-71
2021/05/15 02:27:35;;;;;;;5.90;1.83;;;19.30;84.10;;;;;;5024575;28;19905;-67
2021/05/15 02:30:41;;;;;;;5.90;1.80;;;19.30;84.10;;;;;;5025680;28;20021;-68
2021/05/15 02:33:47;;;;;;;2.55;1.05;;;19.30;84.20;;;;;;5022650;28;20025;-67
2021/05/15 02:36:16;;;;;;;4.90;1.50;;;19.30;84.20;;;;;;5022377;28;20504;-67
2021/05/15 02:38:42;;;;;;;2.58;1.23;;;19.30;84.10;;;;;;5023674;28;20555;-69
2021/05/15 02:41:09;;;;;;;4.60;1.20;;;19.20;83.80;;;;;;5022314;28;20028;-67
2021/05/15 02:43:35;;;;;;;5.28;1.90;;;19.20;83.70;;;;;;5024317;28;20473;-68
2021/05/15 02:46:02;;;;;;;7.05;1.65;;;19.20;83.70;;;;;;5024776;28;20014;-68
2021/05/15 02:48:28;;;;;;;1.90;1.30;;;19.20;83.70;;;;;;5023777;28;20354;-68
2021/05/15 02:50:55;;;;;;;3.97;1.60;;;19.30;83.80;;;;;;5030078;28;20093;-69
2021/05/15 02:53:21;;;;;;;3.97;1.23;;;19.20;83.80;;;;;;5023623;28;20036;-68
2021/05/15 02:55:48;;;;;;;6.70;2.28;;;19.20;83.90;;;;;;5024753;28;20033;-68
2021/05/15 02:58:16;;;;;;;3.20;1.10;;;19.20;83.90;;;;;;5023312;28;20045;-68
2021/05/15 03:00:43;;;;;;;4.88;1.60;;;19.20;83.90;;;;;;5021893;28;20028;-69
2021/05/15 03:03:10;;;;;;;6.45;1.35;;;19.20;83.90;;;;;;5024240;28;20022;-69
2021/05/15 03:05:36;;;;;;;4.85;1.70;;;19.20;84.00;;;;;;5022052;28;20018;-67
2021/05/15 03:08:03;;;;;;;3.80;2.22;;;19.20;84.00;;;;;;5021797;28;20087;-70
2021/05/15 03:10:30;;;;;;;3.05;1.75;;;19.20;84.10;;;;;;5022254;28;20020;-67
2021/05/15 03:12:57;;;;;;;6.72;1.48;;;19.30;84.20;;;;;;5023149;28;20040;-67
2021/05/15 03:15:25;;;;;;;4.50;1.98;;;19.30;84.10;;;;;;5024368;28;20045;-67
2021/05/15 03:17:52;;;;;;;4.15;1.70;;;19.20;84.10;;;;;;5026294;28;20013;-68
2021/05/15 03:20:21;;;;;;;5.18;1.77;;;19.20;84.10;;;;;;5025539;28;20033;-68
2021/05/15 03:22:49;;;;;;;4.20;1.65;;;19.20;84.20;;;;;;5022683;28;20040;-68
2021/05/15 03:25:16;;;;;;;4.88;1.48;;;19.20;84.30;;;;;;5054418;28;20560;-67
2021/05/15 03:27:43;;;;;;;2.17;1.73;;;19.20;84.40;;;;;;5023221;28;20014;-67
2021/05/15 03:30:11;;;;;;;3.10;1.05;;;19.20;84.40;;;;;;5023348;28;20021;-67
2021/05/15 03:32:40;;;;;;;4.75;1.65;;;19.20;84.40;;;;;;5025673;28;20021;-67
2021/05/15 03:35:08;;;;;;;4.25;1.40;;;19.20;84.50;;;;;;5021615;28;20041;-68
2021/05/15 03:37:35;;;;;;;2.22;1.20;;;19.20;84.60;;;;;;5020553;28;20439;-67
2021/05/15 03:40:02;;;;;;;5.50;1.75;;;19.20;84.70;;;;;;5022208;28;20037;-68
2021/05/15 03:42:28;;;;;;;6.70;2.05;;;19.20;84.70;;;;;;5023223;28;20056;-67
2021/05/15 03:44:55;;;;;;;5.28;1.92;;;19.20;84.80;;;;;;5022636;28;20060;-69
2021/05/15 03:47:21;;;;;;;6.15;1.80;;;19.20;84.80;;;;;;5026966;28;20037;-67
2021/05/15 03:49:48;;;;;;;4.95;1.38;;;19.20;84.90;;;;;;5022900;28;20025;-67
2021/05/15 03:52:14;;;;;;;6.60;1.73;;;19.20;84.90;;;;;;5022664;28;20508;-67
2021/05/15 03:54:41;;;;;;;7.18;2.03;;;19.20;85.00;;;;;;5022677;28;20423;-67
2021/05/15 03:57:07;;;;;;;8.02;1.60;;;19.10;84.90;;;;;;5023142;28;20022;-67
2021/05/15 03:59:34;;;;;;;5.60;1.60;;;19.20;85.10;;;;;;5022196;28;20029;-68
2021/05/15 04:02:00;;;;;;;4.78;1.98;;;19.20;85.00;;;;;;5025594;28;20017;-67
2021/05/15 04:04:27;;;;;;;5.47;1.88;;;19.20;84.90;;;;;;5022037;28;20102;-69
2021/05/15 04:06:53;;;;;;;1.85;1.30;;;19.20;84.90;;;;;;5022142;28;20509;-68
2021/05/15 04:09:20;;;;;;;8.27;2.28;;;19.20;85.00;;;;;;5022525;28;20076;-68
2021/05/15 04:11:46;;;;;;;11.20;4.95;;;19.20;85.00;;;;;;5021213;28;20126;-68
2021/05/15 04:17:17;;;;;;;14.77;5.95;;;19.20;84.80;;;;;;5020338;28;20392;-71
2021/05/15 04:19:46;;;;;;;12.00;4.78;;;19.20;84.80;;;;;;5021351;28;20033;-72
2021/05/15 04:22:13;;;;;;;10.27;4.28;;;19.20;84.80;;;;;;5023001;28;20028;-71
2021/05/15 04:24:39;;;;;;;7.40;3.67;;;19.20;84.90;;;;;;5022876;28;20124;-71
2021/05/15 04:27:06;;;;;;;7.88;3.00;;;19.10;84.90;;;;;;5021604;28;20354;-71
2021/05/15 04:29:33;;;;;;;5.72;3.25;;;19.10;85.00;;;;;;5019627;28;20018;-70
2021/05/15 04:32:00;;;;;;;7.55;3.38;;;19.20;85.10;;;;;;5019041;28;20496;-71
2021/05/15 04:34:28;;;;;;;6.80;2.33;;;19.20;85.30;;;;;;5022474;28;20041;-70
2021/05/15 04:36:56;;;;;;;6.32;1.75;;;19.20;85.30;;;;;;5021015;28;20022;-71
2021/05/15 04:39:24;;;;;;;7.22;3.08;;;19.20;85.40;;;;;;5026369;28;20029;-71
2021/05/15 04:42:30;;;;;;;5.93;1.95;;;19.10;85.50;;;;;;5019944;28;20025;-70
2021/05/15 04:45:36;;;;;;;11.98;3.55;;;19.10;85.40;;;;;;5021356;28;20055;-70
2021/05/15 04:48:44;;;;;;;5.93;2.45;;;19.20;85.50;;;;;;5020902;28;20029;-70
2021/05/15 04:51:50;;;;;;;4.75;2.50;;;19.20;85.50;;;;;;5020350;28;20053;-75
2021/05/15 04:54:56;;;;;;;5.68;2.17;;;19.10;85.50;;;;;;5016242;28;20061;-69
2021/05/15 04:58:02;;;;;;;8.82;2.28;;;19.20;85.70;;;;;;5022170;28;20071;-71
2021/05/15 05:01:08;;;;;;;7.80;2.10;;;19.10;85.60;;;;;;5031618;28;20060;-71
2021/05/15 05:04:14;;;;;;;9.10;1.92;;;19.20;85.70;;;;;;5026282;28;20026;-69
2021/05/15 05:07:20;;;;;;;10.73;2.30;;;19.20;85.80;;;;;;5025485;28;20720;-71
2021/05/15 05:10:28;;;;;;;24.63;17.48;;;19.10;85.80;;;;;;5014830;28;20034;-68
2021/05/15 05:13:34;;;;;;;34.20;26.08;;;19.20;86.00;;;;;;5015207;28;20045;-67
2021/05/15 05:16:40;;;;;;;23.65;17.83;;;19.10;86.10;;;;;;5017163;28;20069;-68
2021/05/15 05:19:46;;;;;;;16.95;11.52;;;19.10;86.10;;;;;;5016354;28;20109;-70
2021/05/15 05:22:52;;;;;;;12.13;9.38;;;19.20;86.20;;;;;;5016586;28;20393;-68
2021/05/15 05:26:03;;;;;;;17.02;7.63;;;19.10;86.10;;;;;;5010446;28;20030;-71
2021/05/15 05:29:11;;;;;;;10.20;5.15;;;19.20;86.10;;;;;;5014416;28;20120;-68
2021/05/15 05:32:18;;;;;;;11.20;4.50;;;19.20;86.10;;;;;;5015024;28;20466;-72
2021/05/15 05:34:46;;;;;;;15.60;5.63;;;19.10;86.00;;;;;;5015825;28;20036;-73
2021/05/15 05:37:14;;;;;;;5.95;3.72;;;19.10;86.00;;;;;;5019802;28;20026;-70
2021/05/15 05:39:42;;;;;;;5.10;3.42;;;19.10;86.00;;;;;;5015448;28;20148;-69
2021/05/15 05:42:09;;;;;;;7.93;3.25;;;19.10;85.80;;;;;;5022135;28;20017;-67
2021/05/15 05:44:35;;;;;;;7.18;2.47;;;19.10;85.80;;;;;;5017975;28;20026;-68
2021/05/15 05:47:02;;;;;;;9.82;2.95;;;19.10;85.70;;;;;;5016867;28;20028;-71
2021/05/15 05:49:28;;;;;;;3.95;2.22;;;19.10;85.70;;;;;;5014895;28;20049;-70
2021/05/15 05:51:55;;;;;;;8.10;2.45;;;19.10;85.50;;;;;;5017063;28;20041;-70
2021/05/15 05:54:21;;;;;;;7.38;2.45;;;19.00;85.40;;;;;;5015132;28;20122;-68
2021/05/15 05:56:48;;;;;;;3.42;1.70;;;19.10;85.50;;;;;;5016959;28;20033;-71
2021/05/15 05:59:14;;;;;;;5.90;2.25;;;19.10;85.50;;;;;;5020745;28;20049;-69
2021/05/15 06:01:41;;;;;;;2.90;1.55;;;19.10;85.50;;;;;;5026457;28;20033;-69
2021/05/15 06:04:07;;;;;;;2.45;1.60;;;19.10;85.50;;;;;;5028640;28;20037;-69
2021/05/15 06:06:34;;;;;;;2.15;1.55;;;19.10;85.50;;;;;;5026449;28;20103;-70
2021/05/15 06:09:00;;;;;;;6.53;2.35;;;19.10;85.50;;;;;;5025903;28;20029;-68
2021/05/15 06:11:27;;;;;;;3.58;1.45;;;19.10;85.50;;;;;;5023226;28;20060;-69
2021/05/15 06:13:53;;;;;;;2.45;1.80;;;19.10;85.60;;;;;;5019490;28;20021;-68
2021/05/15 06:16:19;;;;;;;6.10;1.58;;;19.10;85.60;;;;;;5026832;28;20053;-69
2021/05/15 06:18:46;;;;;;;8.35;4.13;;;19.10;85.50;;;;;;5025365;28;20076;-67
2021/05/15 06:21:13;;;;;;;10.90;6.38;;;19.10;86.00;;;;;;5023659;28;20029;-69
2021/05/15 06:23:39;;;;;;;8.63;7.18;;;19.10;86.20;;;;;;5023559;28;20135;-67
2021/05/15 06:26:09;;;;;;;8.02;5.85;;;19.10;86.10;;;;;;5025260;28;20029;-68
2021/05/15 06:28:39;;;;;;;8.90;5.25;;;19.00;85.90;;;;;;5023736;28;20048;-67
2021/05/15 06:31:06;;;;;;;7.43;4.82;;;19.10;85.80;;;;;;5026217;28;20389;-68
2021/05/15 06:33:33;;;;;;;8.20;4.55;;;19.10;85.70;;;;;;5026574;28;20053;-70
2021/05/15 06:36:00;;;;;;;6.72;3.75;;;19.00;85.50;;;;;;5057595;28;20223;-67
2021/05/15 06:38:27;;;;;;;4.28;2.97;;;19.10;85.50;;;;;;5027271;28;20025;-70
2021/05/15 06:40:53;;;;;;;6.00;3.45;;;19.10;85.50;;;;;;5024747;28;20481;-68
2021/05/15 06:43:20;;;;;;;8.93;3.83;;;19.10;85.50;;;;;;5024789;28;20037;-69
2021/05/15 06:45:46;;;;;;;6.13;2.90;;;19.00;85.40;;;;;;5023106;28;20499;-70
2021/05/15 06:48:13;;;;;;;5.15;3.20;;;19.10;85.50;;;;;;5025977;28;20033;-71
2021/05/15 06:50:40;;;;;;;5.40;3.25;;;19.00;85.40;;;;;;5024879;28;20369;-71
2021/05/15 06:53:46;;;;;;;5.25;2.70;;;19.10;85.40;;;;;;5026388;28;20040;-68
2021/05/15 06:56:12;;;;;;;6.05;2.65;;;19.10;85.40;;;;;;5053233;28;20030;-68
2021/05/15 06:58:41;;;;;;;4.25;2.33;;;19.00;85.40;;;;;;5025013;28;20032;-69
2021/05/15 07:01:08;;;;;;;4.20;2.08;;;19.00;85.40;;;;;;5026718;28;20029;-68
2021/05/15 07:03:36;;;;;;;4.25;2.30;;;19.00;85.40;;;;;;5027166;28;20056;-67
2021/05/15 07:06:04;;;;;;;3.58;2.47;;;19.10;85.40;;;;;;5025155;28;20096;-69
2021/05/15 07:08:30;;;;;;;3.58;2.03;;;19.10;85.50;;;;;;5024857;28;20010;-70
2021/05/15 07:10:57;;;;;;;2.53;2.00;;;19.10;85.50;;;;;;5022022;28;20033;-68
2021/05/15 07:13:24;;;;;;;4.63;3.85;;;19.10;85.50;;;;;;5022586;28;20046;-68
2021/05/15 07:15:50;;;;;;;3.03;2.17;;;19.10;85.50;;;;;;5023377;28;20539;-69
2021/05/15 07:18:19;;;;;;;1.88;1.60;;;19.10;85.50;;;;;;5024520;28;20030;-69
2021/05/15 07:20:46;;;;;;;3.42;2.35;;;19.10;85.50;;;;;;5020346;28;20033;-68
2021/05/15 07:23:13;;;;;;;5.28;2.08;;;19.10;85.60;;;;;;5026790;28;20035;-69
2021/05/15 07:25:39;;;;;;;5.20;2.20;;;19.10;85.50;;;;;;5025860;28;20495;-69
2021/05/15 07:28:06;;;;;;;3.28;2.05;;;19.00;85.50;;;;;;5021282;28;20032;-70
2021/05/15 07:30:33;;;;;;;2.83;1.88;;;19.00;85.50;;;;;;5021798;28;20044;-67
2021/05/15 07:33:01;;;;;;;2.25;2.05;;;19.10;85.60;;;;;;5023457;28;20469;-67
2021/05/15 07:35:28;;;;;;;3.22;2.38;;;19.10;85.70;;;;;;5026475;28;20143;-69
2021/05/15 07:37:55;;;;;;;2.45;2.08;;;19.10;85.80;;;;;;5023580;28;20017;-70
2021/05/15 07:40:21;;;;;;;3.50;2.33;;;19.10;85.80;;;;;;5025363;28;20080;-68
2021/05/15 07:42:48;;;;;;;3.60;2.08;;;19.10;86.60;;;;;;5020876;28;20116;-71
2021/05/15 07:45:15;;;;;;;4.32;2.00;;;19.10;86.10;;;;;;5027054;28;20014;-68
2021/05/15 07:47:43;;;;;;;3.22;2.40;;;19.10;86.10;;;;;;5026090;28;20029;-69
2021/05/15 07:50:10;;;;;;;6.50;2.40;;;19.10;86.20;;;;;;5023690;28;20029;-68
2021/05/15 07:52:37;;;;;;;5.40;2.28;;;19.10;86.30;;;;;;5024672;28;20460;-67
2021/05/15 07:55:06;;;;;;;4.43;1.77;;;19.10;86.60;;;;;;5026033;28;20087;-71
2021/05/15 07:57:33;;;;;;;4.63;2.15;;;19.20;86.30;;;;;;5024970;28;20021;-68
2021/05/15 08:00:00;;;;;;;3.08;2.10;;;19.20;86.40;;;;;;5021347;28;20017;-69
2021/05/15 08:02:27;;;;;;;2.63;1.58;;;19.20;86.50;;;;;;5021893;28;20025;-68
2021/05/15 08:04:58;;;;;;;5.57;1.63;;;19.20;86.40;;;;;;5021771;28;20488;-68
2021/05/15 08:07:24;;;;;;;2.60;1.60;;;19.20;86.40;;;;;;5025994;28;20072;-68
2021/05/15 08:09:51;;;;;;;4.18;2.00;;;19.20;86.30;;;;;;5023550;28;20016;-68
2021/05/15 08:12:18;;;;;;;2.85;1.88;;;19.20;86.30;;;;;;5022986;28;20418;-67
2021/05/15 08:14:44;;;;;;;4.32;1.85;;;19.20;86.30;;;;;;5021917;28;20503;-68
2021/05/15 08:17:11;;;;;;;2.42;1.65;;;19.20;86.30;;;;;;5021910;28;20749;-69
2021/05/15 08:19:37;;;;;;;2.05;1.80;;;19.20;86.30;;;;;;5023546;28;20026;-71
2021/05/15 08:22:04;;;;;;;7.18;2.28;;;19.20;86.30;;;;;;5020538;28;20022;-67
2021/05/15 08:24:30;;;;;;;4.95;2.15;;;19.20;86.40;;;;;;5023155;28;20014;-68
2021/05/15 08:26:57;;;;;;;4.07;1.83;;;19.30;86.50;;;;;;5021382;28;20013;-70
2021/05/15 08:29:24;;;;;;;2.80;1.50;;;19.30;86.60;;;;;;5022917;28;20017;-69
2021/05/15 08:31:51;;;;;;;4.38;2.03;;;19.20;86.60;;;;;;5023041;28;20028;-72
2021/05/15 08:34:17;;;;;;;5.07;1.75;;;19.30;86.60;;;;;;5023065;28;20409;-69
2021/05/15 08:36:44;;;;;;;3.00;2.28;;;19.30;86.70;;;;;;5019930;28;20021;-71
2021/05/15 08:39:11;;;;;;;3.83;1.35;;;19.30;86.70;;;;;;5024779;28;20014;-71
2021/05/15 08:41:37;;;;;;;3.03;1.27;;;19.30;86.70;;;;;;5023156;28;20021;-69
2021/05/15 08:44:06;;;;;;;9.43;3.38;;;19.30;86.80;;;;;;5021725;28;20060;-69
2021/05/15 08:46:32;;;;;;;4.00;1.88;;;19.30;86.90;;;;;;5024995;28;20397;-69
2021/05/15 08:49:05;;;;;;;1.83;1.08;;;19.30;86.90;;;;;;5019774;28;20029;-71
2021/05/15 08:51:32;;;;;;;1.20;0.82;;;19.30;87.00;;;;;;5020039;28;20017;-70
2021/05/15 08:53:59;;;;;;;6.18;3.30;;;19.40;87.00;;;;;;5024704;28;20025;-72
2021/05/15 08:56:27;;;;;;;3.33;1.02;;;19.40;87.50;;;;;;5019961;28;20049;-69
2021/05/15 08:58:55;;;;;;;6.63;1.17;;;19.40;87.10;;;;;;5021765;28;20041;-70
2021/05/15 09:01:23;;;;;;;1.98;1.00;;;19.40;87.10;;;;;;5022511;28;20559;-72
2021/05/15 09:03:49;;;;;;;2.65;1.20;;;19.40;87.10;;;;;;5023473;28;20021;-70
2021/05/15 09:06:16;;;;;;;7.90;2.75;;;19.40;87.10;;;;;;5022136;28;20420;-72
2021/05/15 09:08:50;;;;;;;6.07;1.40;;;19.40;87.10;;;;;;5023759;28;20016;-69
2021/05/15 09:11:17;;;;;;;3.40;1.20;;;19.50;87.20;;;;;;5022437;28;20072;-72
2021/05/15 09:13:52;;;;;;;1.73;1.10;;;19.50;87.30;;;;;;5024459;28;20475;-69
2021/05/15 09:16:21;;;;;;;3.42;0.93;;;19.60;87.50;;;;;;5022120;28;20035;-72
2021/05/15 09:18:48;;;;;;;1.70;1.17;;;19.60;87.70;;;;;;5021984;28;20068;-69
2021/05/15 09:21:17;;;;;;;5.75;1.27;;;19.60;87.70;;;;;;5022711;28;20022;-69
2021/05/15 09:23:46;;;;;;;2.38;1.30;;;19.60;87.80;;;;;;5024320;28;20057;-72
2021/05/15 09:26:15;;;;;;;6.53;1.48;;;19.70;88.00;;;;;;5023486;28;20017;-72
2021/05/15 09:28:55;;;;;;;3.53;1.40;;;19.70;88.10;;;;;;5024491;28;20018;-71
2021/05/15 09:31:32;;;;;;;5.18;2.70;;;19.70;88.10;;;;;;5022580;28;20024;-67
2021/05/15 09:34:02;;;;;;;4.93;1.35;;;19.80;88.20;;;;;;5025384;28;20018;-70
2021/05/15 09:36:37;;;;;;;2.78;1.02;;;19.80;88.20;;;;;;5021282;28;20535;-68
2021/05/15 09:39:11;;;;;;;4.30;1.63;;;19.80;88.20;;;;;;5024574;28;20392;-69
2021/05/15 09:41:46;;;;;;;4.82;1.50;;;19.80;88.10;;;;;;5019905;28;20022;-68
2021/05/15 09:44:18;;;;;;;3.58;1.55;;;19.80;88.00;;;;;;5020726;28;20362;-69
2021/05/15 09:46:47;;;;;;;3.88;0.93;;;19.80;87.80;;;;;;5026551;28;20026;-71
2021/05/15 09:49:15;;;;;;;3.10;1.60;;;19.80;87.60;;;;;;5025706;28;20021;-69
2021/05/15 09:51:58;;;;;;;6.45;2.50;;;19.80;87.50;;;;;;5040694;28;20026;-68
2021/05/15 09:54:27;;;;;;;5.80;1.42;;;19.80;87.40;;;;;;5025377;28;20046;-71
2021/05/15 09:57:16;;;;;;;3.70;1.00;;;19.80;87.40;;;;;;5022615;28;20047;-71
2021/05/15 09:59:44;;;;;;;4.00;0.88;;;19.80;87.40;;;;;;5026752;28;20021;-70
2021/05/15 10:02:15;;;;;;;9.10;1.58;;;19.90;87.50;;;;;;5026506;28;20022;-69
2021/05/15 10:04:44;;;;;;;2.67;1.20;;;19.90;87.60;;;;;;5027664;28;20029;-68
2021/05/15 10:07:23;;;;;;;3.33;1.70;;;20.00;87.70;;;;;;5023333;28;20463;-68
2021/05/15 10:09:50;;;;;;;4.55;1.20;;;20.00;87.60;;;;;;5023708;28;20022;-68
2021/05/15 10:12:16;;;;;;;1.95;1.25;;;20.00;87.70;;;;;;5027081;28;20056;-69
2021/05/15 10:14:43;;;;;;;3.35;1.52;;;20.10;87.90;;;;;;5024482;28;20041;-67
2021/05/15 10:17:09;;;;;;;6.13;1.45;;;20.10;88.10;;;;;;5024513;28;20116;-69
2021/05/15 10:19:36;;;;;;;4.43;1.30;;;20.20;88.10;;;;;;5027938;28;20409;-70
2021/05/15 10:22:03;;;;;;;3.25;0.90;;;20.20;88.20;;;;;;5027186;28;20036;-70
2021/05/15 10:24:34;;;;;;;2.67;1.40;;;20.10;88.10;;;;;;5029021;28;20084;-68
2021/05/15 10:27:07;;;;;;;4.47;1.67;;;20.20;88.10;;;;;;5023011;28;20619;-70
2021/05/15 10:29:43;;;;;;;2.85;1.00;;;20.20;88.10;;;;;;5039238;28;20036;-67
2021/05/15 10:32:30;;;;;;;3.85;1.30;;;20.20;88.20;;;;;;5026641;28;20043;-67
2021/05/15 10:35:06;;;;;;;3.20;1.50;;;20.20;88.10;;;;;;5024879;28;20026;-69
2021/05/15 10:37:38;;;;;;;2.90;1.20;;;20.20;88.00;;;;;;5027431;28;20486;-72
2021/05/15 10:40:19;;;;;;;6.00;1.40;;;20.20;88.00;;;;;;5021660;28;20026;-70
2021/05/15 10:42:56;;;;;;;6.28;1.75;;;20.10;87.70;;;;;;5027768;28;20508;-67
2021/05/15 10:45:37;;;;;;;3.95;1.23;;;20.10;87.50;;;;;;5028089;28;20024;-70
2021/05/15 10:48:23;;;;;;;4.82;1.70;;;20.20;87.50;;;;;;5024321;28;20055;-70
2021/05/15 10:51:01;;;;;;;4.25;1.63;;;20.20;87.40;;;;;;5025795;28;20108;-69
2021/05/15 10:53:29;;;;;;;2.50;1.30;;;20.10;87.30;;;;;;5021802;28;20067;-71
2021/05/15 10:56:15;;;;;;;4.63;1.60;;;20.10;87.10;;;;;;5023533;28;20619;-68
2021/05/15 10:58:48;;;;;;;5.75;1.45;;;20.10;86.90;;;;;;5035164;28;20396;-68
2021/05/15 11:01:17;;;;;;;2.83;1.15;;;20.00;86.60;;;;;;5020703;28;20018;-71
2021/05/15 11:03:44;;;;;;;3.55;1.10;;;20.00;86.20;;;;;;5024901;28;20550;-68
2021/05/15 11:06:15;;;;;;;2.95;1.23;;;20.00;86.00;;;;;;5023959;28;20017;-69
2021/05/15 11:08:43;;;;;;;5.15;1.98;;;19.90;86.30;;;;;;5028067;28;20021;-71
2021/05/15 11:11:12;;;;;;;5.30;1.88;;;19.90;85.70;;;;;;5022237;28;20037;-67
2021/05/15 11:13:50;;;;;;;2.92;1.42;;;19.80;85.70;;;;;;5024378;28;20742;-70
2021/05/15 11:16:29;;;;;;;3.45;1.45;;;19.80;85.90;;;;;;5021007;28;20034;-71
2021/05/15 11:19:06;;;;;;;3.67;1.77;;;19.80;86.30;;;;;;5021395;28;20024;-71
2021/05/15 11:21:38;;;;;;;5.78;1.80;;;19.70;86.50;;;;;;5027895;28;20040;-72
2021/05/15 11:24:06;;;;;;;5.70;1.80;;;19.70;86.70;;;;;;5024120;28;20029;-68
2021/05/15 11:26:46;;;;;;;2.50;1.38;;;19.70;86.80;;;;;;5024896;28;20388;-67
2021/05/15 11:29:13;;;;;;;5.15;1.98;;;19.70;86.90;;;;;;5023102;28;20059;-69
2021/05/15 11:31:39;;;;;;;7.78;2.20;;;19.70;87.10;;;;;;5024766;28;20022;-70
2021/05/15 11:34:11;;;;;;;4.75;2.00;;;19.70;87.20;;;;;;5022983;28;20056;-72
2021/05/15 11:36:41;;;;;;;7.88;2.45;;;19.70;87.30;;;;;;5021413;28;20028;-71
2021/05/15 11:39:11;;;;;;;5.95;1.85;;;19.70;87.30;;;;;;5025521;28;20465;-71
2021/05/15 11:41:38;;;;;;;5.60;2.63;;;19.70;87.40;;;;;;5023154;28;20021;-74
2021/05/15 11:44:06;;;;;;;4.05;1.95;;;19.70;87.40;;;;;;5023222;28;20034;-74
2021/05/15 11:46:32;;;;;;;5.50;1.67;;;19.60;87.60;;;;;;5022823;28;20111;-71
2021/05/15 11:48:59;;;;;;;6.88;1.77;;;19.70;87.60;;;;;;5022349;28;20040;-72
2021/05/15 11:51:26;;;;;;;2.35;1.50;;;19.60;87.50;;;;;;5025015;28;20045;-71
2021/05/15 11:53:55;;;;;;;4.22;1.85;;;19.70;87.60;;;;;;5021536;28;20021;-71
2021/05/15 11:56:23;;;;;;;2.88;2.03;;;19.60;87.60;;;;;;5021268;28;20038;-69
2021/05/15 11:58:55;;;;;;;4.45;1.50;;;19.70;87.50;;;;;;5023379;28;20121;-71
2021/05/15 12:01:30;;;;;;;4.75;2.22;;;19.70;87.60;;;;;;5024296;28;20045;-70
2021/05/15 12:04:18;;;;;;;3.38;1.38;;;19.60;87.50;;;;;;5021801;28;20427;-72
2021/05/15 12:06:46;;;;;;;1.70;1.17;;;19.60;87.60;;;;;;5023560;28;20033;-71
2021/05/15 12:09:19;;;;;;;3.42;1.40;;;19.60;87.50;;;;;;5022952;28;20041;-73
2021/05/15 12:11:46;;;;;;;1.52;0.93;;;19.60;87.60;;;;;;5025751;28;20101;-74
2021/05/15 12:14:13;;;;;;;1.25;0.93;;;19.60;87.60;;;;;;5022783;28;20034;-69
2021/05/15 12:16:40;;;;;;;1.80;1.17;;;19.60;87.70;;;;;;5024100;28;20028;-71
2021/05/15 12:19:20;;;;;;;2.97;1.40;;;19.60;87.70;;;;;;5021036;28;20389;-72
2021/05/15 12:22:00;;;;;;;1.13;0.90;;;19.60;87.60;;;;;;5057960;28;20014;-72
2021/05/15 12:24:40;;;;;;;2.13;1.08;;;19.60;87.60;;;;;;5025024;28;20037;-72
2021/05/15 12:27:12;;;;;;;1.50;1.40;;;19.60;87.50;;;;;;5020477;28;20025;-73
2021/05/15 12:29:40;;;;;;;1.63;1.20;;;19.60;87.50;;;;;;5023164;28;20099;-74
2021/05/15 12:32:07;;;;;;;1.80;1.70;;;19.60;87.50;;;;;;5025850;28;20006;-73
2021/05/15 12:34:34;;;;;;;3.47;1.23;;;19.50;87.30;;;;;;5017805;28;20084;-72
2021/05/15 12:37:00;;;;;;;3.88;2.00;;;19.50;87.30;;;;;;5012446;28;20489;-72
2021/05/15 12:39:34;;;;;;;2.03;1.23;;;19.50;87.30;;;;;;5014014;28;20034;-73
2021/05/15 12:42:02;;;;;;;1.85;1.00;;;19.50;87.30;;;;;;5045468;28;20040;-71
2021/05/15 12:44:48;;;;;;;2.40;1.17;;;19.50;87.30;;;;;;5014055;28;20026;-72
2021/05/15 12:47:15;;;;;;;1.33;0.85;;;19.50;87.30;;;;;;5014637;28;20616;-70
2021/05/15 12:50:26;;;;;;;2.08;0.93;;;19.50;87.30;;;;;;5011468;28;20556;-74
2021/05/15 12:53:32;;;;;;;1.75;0.90;;;19.50;87.40;;;;;;5014047;28;20063;-71
2021/05/15 12:56:38;;;;;;;1.35;1.10;;;19.50;87.20;;;;;;5017669;28;20163;-73
2021/05/15 12:59:47;;;;;;;2.15;0.98;;;19.50;87.20;;;;;;5014283;28;20585;-71
2021/05/15 13:02:53;;;;;;;2.50;0.68;;;19.50;87.20;;;;;;5010268;28;20079;-70
2021/05/15 13:06:00;;;;;;;2.03;1.83;;;19.50;87.20;;;;;;5015219;28;20045;-71
2021/05/15 13:08:55;;;;;;;12.77;11.25;;;19.50;87.30;;;;;;5013567;28;20038;-71
2021/05/15 13:11:22;;;;;;;10.48;8.15;;;19.50;87.30;;;;;;5014175;28;20038;-71
2021/05/15 13:13:51;;;;;;;9.75;6.25;;;19.40;87.20;;;;;;5014484;28;20067;-73
2021/05/15 13:16:18;;;;;;;8.60;4.75;;;19.50;87.30;;;;;;5011873;28;20548;-72